Time;durP1;ratioP1;P1;durP2;ratioP2;P2;SDS_P1;SDS_P2;PMS_P1;PMS_P2;Temp;Humidity;BMP_temperature;BMP_pressure;BME280_temperature;BME280_humidity;BME280_pressure;Samples;Min_cycle;Max_cycle;Signal;HPM_P1;HPM_P2
2022/05/21 00:03:40;;;;;;;7.50;4.25;;;;;;;10.10;79.63;98065.69;10336367;28;20499;-59
2022/05/21 00:08:39;;;;;;;10.43;4.20;;;;;;;10.02;80.11;98064.75;10336313;28;20072;-59
2022/05/21 00:13:39;;;;;;;7.28;3.90;;;;;;;9.96;80.24;98058.69;10320021;28;20474;-59
2022/05/21 00:18:38;;;;;;;5.47;3.70;;;;;;;9.92;80.10;98041.38;10305473;28;20496;-59
2022/05/21 00:23:37;;;;;;;6.57;3.78;;;;;;;9.84;80.13;98040.47;10326303;28;20477;-59
2022/05/21 00:28:39;;;;;;;6.20;3.20;;;;;;;9.68;80.84;98029.13;10334618;28;20076;-59
2022/05/21 00:33:38;;;;;;;4.20;2.72;;;;;;;9.66;80.16;98030.84;10331580;28;20080;-59
2022/05/21 00:38:38;;;;;;;5.50;2.97;;;;;;;9.62;80.16;98029.06;10331074;28;20485;-59
2022/05/21 00:43:43;;;;;;;5.90;3.17;;;;;;;9.64;80.06;98026.50;10332866;28;20072;-59
2022/05/21 00:48:44;;;;;;;9.07;4.35;;;;;;;9.64;80.03;98016.13;10331683;28;20061;-59
2022/05/21 00:53:45;;;;;;;8.55;4.50;;;;;;;9.62;80.21;98013.53;10330732;28;20065;-59
2022/05/21 01:04:02;;;;;;;8.50;4.80;;;;;;;9.38;82.26;98021.13;10332655;28;20061;-59
2022/05/21 01:09:02;;;;;;;6.95;3.53;;;;;;;9.42;82.13;98007.31;10330257;28;20088;-59
2022/05/21 01:14:03;;;;;;;8.93;4.30;;;;;;;9.37;82.31;98007.28;10331208;28;20507;-59
2022/05/21 01:19:10;;;;;;;6.97;4.22;;;;;;;9.24;82.83;98006.31;10330943;28;20061;-59
2022/05/21 01:24:10;;;;;;;7.88;4.18;;;;;;;9.19;83.06;98007.13;10330667;28;20842;-59
2022/05/21 01:29:21;;;;;;;9.35;4.38;;;;;;;8.96;83.04;97974.13;10331606;28;20092;-59
2022/05/21 01:34:21;;;;;;;11.02;4.88;;;;;;;9.00;83.03;98003.53;10337931;28;20076;-59
2022/05/21 01:39:20;;;;;;;8.98;4.63;;;;;;;8.98;82.91;97992.28;10372185;28;20075;-59
2022/05/21 01:49:38;;;;;;;18.90;6.03;;;;;;;8.78;82.79;97974.81;10368474;28;20069;-59
2022/05/21 01:54:37;;;;;;;8.85;4.32;;;;;;;8.80;83.61;97978.28;10338436;28;20859;-59
2022/05/21 01:59:38;;;;;;;6.88;4.30;;;;;;;8.77;83.47;97980.88;10338130;28;20045;-58
2022/05/21 02:04:37;;;;;;;7.63;3.70;;;;;;;8.57;84.17;97972.03;10338400;28;20057;-59
2022/05/21 02:09:35;;;;;;;9.80;4.07;;;;;;;8.38;84.33;97953.72;10337951;28;20033;-59
2022/05/21 02:14:35;;;;;;;5.78;3.55;;;;;;;8.39;84.22;97968.41;10337857;28;20120;-59
2022/05/21 02:19:34;;;;;;;10.85;3.88;;;;;;;8.18;84.27;97950.94;10335279;28;20083;-59
2022/05/21 02:24:33;;;;;;;8.90;3.30;;;;;;;8.17;84.71;97984.50;10337530;28;20031;-59
2022/05/21 02:29:33;;;;;;;6.22;3.85;;;;;;;8.06;84.83;97974.91;10337653;28;20040;-59
2022/05/21 02:34:33;;;;;;;7.57;3.83;;;;;;;7.98;85.48;97978.25;10347232;28;20091;-59
2022/05/21 02:39:32;;;;;;;8.05;4.13;;;;;;;7.91;85.73;97966.09;10377804;28;20065;-59
2022/05/21 02:44:31;;;;;;;7.03;3.78;;;;;;;7.88;86.05;97969.50;10377072;28;20060;-59
2022/05/21 02:49:30;;;;;;;8.63;4.30;;;;;;;7.82;86.20;97956.50;10340933;28;20132;-59
2022/05/21 02:54:29;;;;;;;7.38;3.92;;;;;;;7.71;87.18;97965.81;10328880;28;20076;-59
2022/05/21 02:59:31;;;;;;;8.55;4.50;;;;;;;7.66;87.21;97976.06;10334348;28;20029;-58
2022/05/21 03:04:30;;;;;;;8.95;4.82;;;;;;;7.58;88.07;97977.69;10335163;28;20069;-59
2022/05/21 03:14:46;;;;;;;9.93;4.53;;;;;;;7.55;88.25;97970.78;10335024;28;20061;-59
2022/05/21 03:19:45;;;;;;;8.65;4.25;;;;;;;7.58;88.02;97962.22;10329943;28;20287;-59
2022/05/21 03:24:44;;;;;;;8.80;4.78;;;;;;;7.60;88.53;97973.44;10332595;28;20026;-59
2022/05/21 03:29:43;;;;;;;10.73;5.05;;;;;;;7.61;87.88;97970.84;10334136;28;20021;-59
2022/05/21 03:34:42;;;;;;;8.63;4.18;;;;;;;7.63;88.32;97969.16;10346184;28;20523;-59
2022/05/21 03:39:41;;;;;;;11.00;4.95;;;;;;;7.64;87.93;97959.72;10343708;28;20487;-59
2022/05/21 03:44:40;;;;;;;8.68;5.53;;;;;;;7.22;88.20;97904.88;10333861;28;20472;-59
2022/05/21 03:49:39;;;;;;;8.75;5.43;;;;;;;7.64;88.92;97968.34;10332616;28;20029;-59
2022/05/21 03:54:38;;;;;;;11.85;5.85;;;;;;;7.63;89.27;97971.75;10334720;28;20505;-59
2022/05/21 03:59:38;;;;;;;12.45;5.57;;;;;;;7.77;89.02;97979.69;10332293;28;20057;-59
2022/05/21 04:04:38;;;;;;;11.82;6.38;;;;;;;7.90;89.04;97982.44;10333865;28;20053;-59
2022/05/21 04:09:36;;;;;;;13.35;6.72;;;;;;;8.00;88.66;97982.56;10332971;28;20057;-59
2022/05/21 04:14:36;;;;;;;11.45;6.20;;;;;;;8.19;88.82;97988.84;10332628;28;20045;-59
2022/05/21 04:19:35;;;;;;;;;;;;;;;8.35;88.88;97979.56;10331805;28;20061;-58
2022/05/21 04:24:34;;;;;;;10.30;5.50;;;;;;;8.48;88.54;97970.19;10332823;28;19971;-59
2022/05/21 04:29:32;;;;;;;9.95;4.82;;;;;;;8.52;88.96;97988.34;10333945;28;20033;-59
2022/05/21 04:34:31;;;;;;;9.82;5.40;;;;;;;8.66;88.88;98000.56;10344511;28;20124;-59
2022/05/21 04:39:30;;;;;;;15.15;5.53;;;;;;;8.50;88.69;97958.16;10376573;28;20060;-59
2022/05/21 04:44:34;;;;;;;9.82;6.05;;;;;;;8.83;88.28;97992.97;10376819;28;20063;-58
2022/05/21 04:49:35;;;;;;;9.90;5.38;;;;;;;9.00;88.19;97993.16;10361074;28;20076;-59
2022/05/21 04:54:36;;;;;;;8.80;4.97;;;;;;;9.26;87.80;97991.66;10334979;28;20064;-59
2022/05/21 04:59:35;;;;;;;8.40;4.82;;;;;;;9.57;87.84;97997.09;10335269;28;20061;-59
2022/05/21 05:04:34;;;;;;;11.73;6.00;;;;;;;9.90;86.58;97995.56;10335132;28;20037;-58
2022/05/21 05:09:43;;;;;;;9.00;4.95;;;;;;;10.09;85.21;97999.97;10335092;28;20467;-59
2022/05/21 05:14:43;;;;;;;10.65;6.20;;;;;;;10.28;84.80;97974.13;10334900;28;20064;-58
2022/05/21 05:19:42;;;;;;;8.77;5.30;;;;;;;10.55;83.83;97996.72;10332382;28;20068;-59
2022/05/21 05:24:41;;;;;;;;;;;;;;;10.70;82.12;97986.34;10342462;28;20068;-59
2022/05/21 05:29:41;;;;;;;9.67;4.80;;;;;;;10.94;81.51;97982.97;10343808;28;19952;-59
2022/05/21 05:34:40;;;;;;;9.90;5.40;;;;;;;11.24;81.51;97983.84;10357893;28;20081;-59
2022/05/21 05:39:39;;;;;;;10.90;5.15;;;;;;;11.58;80.27;97973.44;10339448;28;20033;-59
2022/05/21 05:44:38;;;;;;;9.90;5.07;;;;;;;11.88;78.60;97967.31;10338788;28;20029;-59
2022/05/21 05:49:36;;;;;;;7.30;4.78;;;;;;;12.20;76.86;97953.31;10337347;28;20124;-59
2022/05/21 05:54:37;;;;;;;8.95;5.80;;;;;;;12.47;76.16;97944.56;10338071;28;20080;-59
2022/05/21 05:59:48;;;;;;;9.63;5.25;;;;;;;12.80;75.69;97940.88;10337888;28;20069;-59
2022/05/21 06:04:47;;;;;;;7.53;4.90;;;;;;;13.20;74.59;97937.09;10337885;28;20064;-58
2022/05/21 06:09:46;;;;;;;7.47;4.00;;;;;;;13.29;69.93;97903.13;10337333;28;20132;-58
2022/05/21 06:14:46;;;;;;;8.85;5.03;;;;;;;13.72;69.00;97906.19;10337587;28;20087;-58
2022/05/21 06:19:45;;;;;;;6.60;4.13;;;;;;;13.90;67.70;97889.47;10335409;28;20119;-58
2022/05/21 06:24:44;;;;;;;6.10;4.20;;;;;;;14.31;66.82;97903.75;10337072;28;20120;-59
2022/05/21 06:29:43;;;;;;;;;;;;;;;14.61;63.99;97888.50;10335390;28;20089;-59
2022/05/21 06:34:42;;;;;;;6.05;4.10;;;;;;;14.78;64.40;97873.47;10334245;28;20394;-58
2022/05/21 06:39:44;;;;;;;10.73;4.40;;;;;;;15.12;62.54;97870.28;10344396;28;20061;-58
2022/05/21 06:44:43;;;;;;;7.03;3.58;;;;;;;15.42;60.97;97862.78;10336465;28;20073;-58
2022/05/21 06:49:42;;;;;;;;;;;;;;;15.81;60.83;97860.31;10332386;28;20022;-59
2022/05/21 06:54:41;;;;;;;5.25;3.33;;;;;;;16.04;59.37;97851.97;10332799;28;19968;-58
2022/05/21 06:59:40;;;;;;;;;;;;;;;16.25;57.03;97840.19;10314264;28;20124;-58
2022/05/21 07:09:57;;;;;;;3.47;1.98;;;;;;;16.68;52.14;97837.44;10331537;28;20057;-58
2022/05/21 07:14:56;;;;;;;5.40;2.33;;;;;;;16.90;49.97;97823.81;10334063;28;20065;-58
2022/05/21 07:19:55;;;;;;;;;;;;;;;17.21;47.88;97815.16;10335406;28;20033;-59
2022/05/21 07:24:54;;;;;;;3.13;2.03;;;;;;;17.44;46.63;97807.53;10313460;28;19963;-58
2022/05/21 07:29:53;;;;;;;;;;;;;;;17.75;46.84;97815.41;10326774;28;20081;-59
2022/05/21 07:35:03;;;;;;;4.03;2.30;;;;;;;18.13;47.77;97815.22;10337488;28;20408;-59
2022/05/21 07:40:04;;;;;;;4.25;2.00;;;;;;;18.40;45.69;97806.44;10336825;28;20489;-58
2022/05/21 07:45:05;;;;;;;5.43;2.40;;;;;;;18.67;44.56;97776.72;10336321;28;20501;-58
2022/05/21 07:50:05;;;;;;;9.27;2.88;;;;;;;19.08;44.74;97787.63;10319355;28;20061;-58
2022/05/21 07:55:06;;;;;;;6.28;2.80;;;;;;;19.37;42.68;97770.78;10336469;28;20060;-58
2022/05/21 08:00:07;;;;;;;7.88;3.25;;;;;;;19.60;44.18;97772.63;10336591;28;20053;-58
2022/05/21 08:05:06;;;;;;;7.00;2.80;;;;;;;19.81;42.61;97763.94;10336899;28;20068;-59
2022/05/21 08:10:06;;;;;;;5.68;2.35;;;;;;;20.07;44.65;97751.50;10335996;28;20077;-59
2022/05/21 08:15:05;;;;;;;3.00;2.22;;;;;;;20.50;44.70;97765.66;10335147;28;20068;-58
2022/05/21 08:20:06;;;;;;;4.47;2.22;;;;;;;20.63;43.44;97761.59;10334981;28;20539;-58
2022/05/21 08:30:23;;;;;;;4.35;1.95;;;;;;;21.04;42.29;97752.84;10332432;28;20508;-59
2022/05/21 08:35:22;;;;;;;3.67;1.92;;;;;;;21.31;42.78;97740.22;10349290;28;20068;-59
2022/05/21 08:40:22;;;;;;;3.47;2.30;;;;;;;21.57;42.39;97747.00;10373320;28;20759;-59
2022/05/21 08:45:53;;;;;;;3.17;1.80;;;;;;;21.72;41.00;97727.78;10372390;28;20080;-59
2022/05/21 08:50:54;;;;;;;3.50;1.90;;;;;;;22.04;38.65;97743.06;10325658;28;20073;-58
2022/05/21 08:55:56;;;;;;;2.65;1.73;;;;;;;22.30;39.18;97742.69;10331664;28;20073;-58
2022/05/21 09:00:55;;;;;;;4.03;2.53;;;;;;;22.51;40.13;97732.00;10330755;28;20071;-59
2022/05/21 09:06:08;;;;;;;2.42;1.88;;;;;;;22.80;40.63;97736.72;10331948;28;20487;-59
2022/05/21 09:11:15;;;;;;;2.78;1.60;;;;;;;22.93;35.82;97725.53;10331723;28;20057;-58
2022/05/21 09:21:39;;;;;;;3.55;1.55;;;;;;;23.66;33.22;97714.63;10291292;28;20065;-59
2022/05/21 09:26:51;;;;;;;2.40;1.63;;;;;;;23.94;30.80;97725.41;10305958;28;20501;-59
2022/05/21 09:31:51;;;;;;;2.55;1.80;;;;;;;24.19;30.46;97724.06;10331079;28;20073;-59
2022/05/21 09:36:50;;;;;;;3.58;1.70;;;;;;;24.32;29.54;97722.44;10347199;28;20065;-59
2022/05/21 09:42:05;;;;;;;3.50;1.50;;;;;;;24.63;28.82;97720.66;10330395;28;20073;-59
2022/05/21 09:47:15;;;;;;;4.63;1.83;;;;;;;24.82;28.68;97723.06;10328156;28;20491;-59
2022/05/21 09:52:23;;;;;;;3.78;2.35;;;;;;;24.89;27.72;97713.81;10330270;28;20099;-57
2022/05/21 09:57:37;;;;;;;2.00;1.70;;;;;;;25.10;28.47;97706.38;10331205;28;20065;-58
2022/05/21 10:02:46;;;;;;;2.65;1.75;;;;;;;25.45;28.33;97698.88;10330354;28;20065;-58
2022/05/21 10:13:07;;;;;;;2.55;1.50;;;;;;;25.83;23.29;97692.13;10337764;28;20065;-58
2022/05/21 10:18:32;;;;;;;2.63;1.52;;;;;;;25.84;21.24;97688.53;10337144;28;20060;-58
2022/05/21 10:23:45;;;;;;;2.03;1.30;;;;;;;26.07;22.12;97673.75;10337261;28;20061;-58
2022/05/21 10:29:04;;;;;;;1.85;1.45;;;;;;;26.38;23.57;97667.28;10337976;28;20053;-58
2022/05/21 10:34:24;;;;;;;2.78;1.60;;;;;;;26.68;23.15;97668.84;10340033;28;20081;-58
2022/05/21 10:39:47;;;;;;;2.13;1.77;;;;;;;26.88;23.65;97660.34;10339500;28;20057;-58
2022/05/21 10:45:16;;;;;;;1.77;1.50;;;;;;;26.89;21.25;97654.09;10339266;28;20064;-58
2022/05/21 10:50:31;;;;;;;2.65;1.50;;;;;;;27.00;22.33;97653.34;10337702;28;20087;-58
2022/05/21 10:55:59;;;;;;;2.03;1.73;;;;;;;26.99;22.20;97638.31;10337770;28;20217;-58
2022/05/21 11:01:08;;;;;;;2.40;1.70;;;;;;;27.04;22.39;97624.69;10339474;28;20064;-58
2022/05/21 11:06:19;;;;;;;2.60;1.40;;;;;;;27.24;23.28;97609.94;10339465;28;20794;-58
2022/05/21 11:11:30;;;;;;;5.22;2.08;;;;;;;27.51;24.77;97596.50;10338771;28;20065;-58
2022/05/21 11:16:41;;;;;;;4.28;1.73;;;;;;;27.83;24.04;97599.47;10335912;28;20060;-58
2022/05/21 11:21:47;;;;;;;1.98;1.60;;;;;;;27.66;21.93;97597.19;10337321;28;20069;-58
2022/05/21 11:27:00;;;;;;;1.85;1.75;;;;;;;27.54;21.96;97586.47;10337949;28;20077;-58
2022/05/21 11:37:22;;;;;;;2.77;1.67;;;;;;;27.59;23.10;97576.31;10381958;28;20056;-59
2022/05/21 11:42:32;;;;;;;3.75;2.05;;;;;;;27.81;23.52;97585.41;10374826;28;20060;-58
2022/05/21 11:47:48;;;;;;;3.10;1.90;;;;;;;27.90;23.43;97578.53;10357551;28;20075;-58
2022/05/21 11:53:04;;;;;;;2.03;1.80;;;;;;;28.11;23.31;97554.78;10333592;28;20199;-58
2022/05/21 11:58:05;;;;;;;2.47;1.77;;;;;;;28.04;22.87;97549.00;10333522;28;20145;-58
2022/05/21 12:03:07;;;;;;;1.90;1.60;;;;;;;28.22;23.27;97549.44;10333668;28;20231;-58
2022/05/21 12:08:21;;;;;;;3.00;2.15;;;;;;;28.19;23.93;97542.53;10332824;28;20824;-58
2022/05/21 12:13:41;;;;;;;2.10;1.90;;;;;;;28.37;24.03;97545.63;10331638;28;20072;-58
2022/05/21 12:18:43;;;;;;;1.88;1.77;;;;;;;28.18;24.07;97545.34;10329452;28;20072;-58
2022/05/21 12:23:43;;;;;;;4.80;2.17;;;;;;;28.24;24.52;97550.19;10331808;28;20072;-58
2022/05/21 12:28:51;;;;;;;3.90;2.53;;;;;;;28.29;24.38;97544.50;10332611;28;20517;-58
2022/05/21 12:33:55;;;;;;;4.43;2.80;;;;;;;28.45;24.11;97547.69;10335847;28;20084;-58
2022/05/21 12:38:55;;;;;;;3.13;2.00;;;;;;;28.49;23.88;97532.31;10372650;28;20071;-58
2022/05/21 12:43:54;;;;;;;5.13;2.40;;;;;;;28.23;24.01;97489.81;10372659;28;20089;-58
2022/05/21 12:48:59;;;;;;;4.32;2.00;;;;;;;28.37;24.21;97523.44;10338988;28;20069;-58
2022/05/21 12:53:59;;;;;;;4.07;2.00;;;;;;;28.52;24.69;97516.03;10332267;28;20103;-58
2022/05/21 12:59:19;;;;;;;3.22;2.28;;;;;;;28.71;25.15;97504.78;10332375;28;20072;-58
2022/05/21 13:04:38;;;;;;;3.67;2.15;;;;;;;28.81;24.96;97511.97;10332187;28;20080;-58
2022/05/21 13:09:48;;;;;;;3.42;2.42;;;;;;;28.81;24.91;97519.97;10331607;28;20536;-59
2022/05/21 13:14:49;;;;;;;3.80;2.40;;;;;;;28.62;24.85;97491.19;10331540;28;20060;-59
2022/05/21 13:20:15;;;;;;;2.88;2.17;;;;;;;28.73;24.58;97498.34;10329289;28;20096;-59
2022/05/21 13:25:15;;;;;;;4.68;2.60;;;;;;;28.61;24.90;97499.31;10330682;28;20065;-59
2022/05/21 13:30:22;;;;;;;3.55;2.65;;;;;;;28.70;24.84;97495.09;10330653;28;20478;-59
2022/05/21 13:35:41;;;;;;;4.82;2.40;;;;;;;28.85;24.57;97485.84;10329742;28;20068;-59
2022/05/21 13:41:01;;;;;;;4.32;2.40;;;;;;;28.94;25.44;97479.78;10331183;28;20076;-59
2022/05/21 13:46:04;;;;;;;2.90;2.60;;;;;;;29.14;25.41;97463.97;10337880;28;20763;-59
2022/05/21 13:51:03;;;;;;;4.35;2.40;;;;;;;29.04;25.37;97458.50;10337541;28;20085;-59
2022/05/21 13:56:22;;;;;;;3.50;2.20;;;;;;;28.97;25.04;97454.63;10337338;28;20065;-59
2022/05/21 14:01:29;;;;;;;3.17;2.10;;;;;;;28.86;25.44;97444.84;10336144;28;20455;-59
2022/05/21 14:06:28;;;;;;;5.10;2.40;;;;;;;28.83;25.32;97466.47;10334971;28;20467;-59
2022/05/21 14:11:30;;;;;;;3.60;2.25;;;;;;;28.91;25.90;97434.63;10335657;28;20405;-59
2022/05/21 14:16:35;;;;;;;2.60;2.25;;;;;;;28.85;24.83;97454.66;10336729;28;20085;-58
2022/05/21 14:21:37;;;;;;;3.33;2.30;;;;;;;28.83;25.09;97437.91;10337187;28;20296;-58
2022/05/21 14:26:36;;;;;;;4.50;2.70;;;;;;;28.90;24.84;97432.94;10337125;28;20084;-59
2022/05/21 14:31:39;;;;;;;4.40;2.70;;;;;;;28.92;25.42;97422.09;10336453;28;20081;-59
2022/05/21 14:36:44;;;;;;;4.28;2.72;;;;;;;28.91;25.32;97431.94;10336499;28;20080;-59
2022/05/21 14:41:45;;;;;;;3.33;2.17;;;;;;;29.12;25.42;97421.34;10335693;28;20057;-59
2022/05/21 14:57:24;;;;;;;2.58;2.30;;;;;;;28.72;25.04;97405.03;10334515;28;20068;-59
2022/05/21 15:02:23;;;;;;;3.28;2.30;;;;;;;28.84;26.07;97399.53;10334564;28;20065;-59
2022/05/21 15:07:25;;;;;;;3.65;2.60;;;;;;;28.67;26.53;97394.72;10334055;28;20076;-58
2022/05/21 15:12:24;;;;;;;3.08;2.15;;;;;;;28.48;25.81;97392.66;10333022;28;20065;-58
2022/05/21 15:17:23;;;;;;;3.72;2.30;;;;;;;28.43;26.95;97389.47;10331136;28;20029;-58
2022/05/21 15:22:29;;;;;;;2.50;2.30;;;;;;;28.50;26.54;97385.38;10333377;28;20909;-59
2022/05/21 15:27:28;;;;;;;4.15;2.72;;;;;;;28.47;26.53;97385.59;10331696;28;20073;-59
2022/05/21 15:32:27;;;;;;;2.80;2.38;;;;;;;28.40;27.12;97379.91;10335816;28;20073;-59
2022/05/21 15:37:26;;;;;;;4.68;2.20;;;;;;;28.38;27.25;97370.31;10369660;28;20040;-59
2022/05/21 15:42:25;;;;;;;3.33;2.60;;;;;;;28.37;26.95;97363.31;10377149;28;20489;-58
2022/05/21 15:47:24;;;;;;;4.75;2.30;;;;;;;28.24;27.47;97358.94;10352112;28;20056;-59
2022/05/21 15:52:30;;;;;;;4.18;2.53;;;;;;;28.09;27.49;97352.16;10335480;28;20029;-59
2022/05/21 15:57:29;;;;;;;5.28;2.40;;;;;;;28.05;26.85;97363.97;10335779;28;20069;-59
2022/05/21 16:02:33;;;;;;;4.35;2.22;;;;;;;28.09;27.58;97352.16;10335043;28;20056;-59
2022/05/21 16:07:32;;;;;;;7.28;2.65;;;;;;;28.08;27.82;97346.91;10335018;28;20088;-59
2022/05/21 16:12:31;;;;;;;3.92;2.70;;;;;;;28.05;27.68;97338.16;10335352;28;20510;-59
2022/05/21 16:17:30;;;;;;;9.18;4.60;;;;;;;28.05;28.02;97351.50;10333343;28;20068;-59
2022/05/21 16:22:29;;;;;;;4.20;2.28;;;;;;;27.95;28.35;97344.34;10335557;28;20140;-59
2022/05/21 16:27:30;;;;;;;3.55;2.10;;;;;;;27.69;27.76;97322.38;10334978;28;20488;-59
2022/05/21 16:32:31;;;;;;;3.10;2.33;;;;;;;27.85;27.51;97341.56;10329727;28;20088;-59
2022/05/21 16:37:30;;;;;;;2.72;2.30;;;;;;;27.72;28.19;97325.66;10366603;28;20544;-59
2022/05/21 16:42:30;;;;;;;4.28;2.65;;;;;;;27.79;29.14;97347.34;10373048;28;20428;-59
2022/05/21 16:47:32;;;;;;;6.00;2.50;;;;;;;27.73;28.54;97338.03;10343980;28;20065;-59
2022/05/21 16:52:31;;;;;;;5.05;2.80;;;;;;;27.62;28.51;97330.84;10331148;28;20065;-59
2022/05/21 16:57:30;;;;;;;3.60;2.60;;;;;;;27.47;29.75;97332.03;10331455;28;20017;-59
2022/05/21 17:02:29;;;;;;;6.15;3.30;;;;;;;27.33;31.83;97342.84;10331320;28;20028;-59
2022/05/21 17:07:28;;;;;;;8.70;3.50;;;;;;;27.06;32.67;97335.97;10330201;28;20108;-59
2022/05/21 17:12:27;;;;;;;6.82;4.05;;;;;;;26.75;33.87;97340.03;10330744;28;20473;-59
2022/05/21 17:17:26;;;;;;;7.97;3.80;;;;;;;26.35;34.83;97337.59;10329767;28;20511;-59
2022/05/21 17:22:25;;;;;;;8.73;4.53;;;;;;;25.97;35.27;97343.78;10338670;28;20148;-59
2022/05/21 17:32:48;;;;;;;5.45;3.35;;;;;;;25.08;35.80;97334.75;10338021;28;20504;-58
2022/05/21 17:37:47;;;;;;;7.57;3.70;;;;;;;24.68;36.87;97341.78;10375546;28;20063;-58
2022/05/21 17:42:47;;;;;;;9.07;4.15;;;;;;;24.27;37.65;97340.00;10378633;28;20037;-57
2022/05/21 17:47:46;;;;;;;8.20;4.43;;;;;;;23.91;38.73;97346.63;10348401;28;20100;-57
2022/05/21 17:52:45;;;;;;;6.90;4.00;;;;;;;23.57;39.49;97346.00;10337384;28;20080;-58
2022/05/21 17:57:45;;;;;;;8.07;3.92;;;;;;;23.22;40.40;97354.19;10337815;28;20069;-58
2022/05/21 18:02:47;;;;;;;7.10;3.53;;;;;;;22.89;40.94;97353.53;10337665;28;20100;-58
2022/05/21 18:07:47;;;;;;;6.57;3.47;;;;;;;22.57;42.34;97357.00;10337155;28;20547;-58
2022/05/21 18:12:48;;;;;;;7.22;4.15;;;;;;;22.26;42.36;97357.84;10337745;28;20068;-58
2022/05/21 18:23:04;;;;;;;9.00;4.25;;;;;;;21.92;44.00;97377.25;10337503;28;20069;-57
2022/05/21 18:28:03;;;;;;;9.70;4.47;;;;;;;21.69;44.81;97381.13;10357575;28;20071;-57
2022/05/21 18:33:02;;;;;;;9.82;4.75;;;;;;;21.51;45.98;97396.13;10350186;28;20080;-57
2022/05/21 18:38:01;;;;;;;17.90;6.13;;;;;;;21.24;47.41;97377.25;10337133;28;20065;-57
2022/05/21 18:43:01;;;;;;;6.07;4.25;;;;;;;21.13;48.06;97390.94;10338343;28;20516;-57
2022/05/21 18:48:00;;;;;;;6.28;3.50;;;;;;;20.92;48.33;97403.41;10336602;28;20073;-58
2022/05/21 18:52:59;;;;;;;6.72;3.90;;;;;;;20.69;48.77;97409.78;10338911;28;20080;-57
2022/05/21 18:58:03;;;;;;;6.35;3.45;;;;;;;20.48;48.54;97424.81;10338300;28;20025;-58
2022/05/21 19:03:03;;;;;;;7.22;3.60;;;;;;;20.31;48.93;97428.19;10339013;28;20517;-58
2022/05/21 19:08:02;;;;;;;7.55;3.53;;;;;;;20.17;48.92;97426.19;10338138;28;20034;-57
2022/05/21 19:13:01;;;;;;;6.18;4.00;;;;;;;20.10;49.01;97435.28;10338357;28;20087;-57
2022/05/21 19:18:00;;;;;;;5.70;3.58;;;;;;;20.02;49.17;97442.66;10336130;28;20060;-57
2022/05/21 19:22:59;;;;;;;4.50;2.97;;;;;;;19.84;49.48;97424.13;10337643;28;20060;-57
2022/05/21 19:27:58;;;;;;;6.40;3.85;;;;;;;19.81;50.12;97440.06;10336944;28;20061;-57
2022/05/21 19:32:57;;;;;;;11.15;4.03;;;;;;;19.72;50.98;97437.81;10332810;28;20081;-57
2022/05/21 19:37:56;;;;;;;8.65;4.25;;;;;;;19.59;51.37;97447.16;10371817;28;20100;-58
2022/05/21 19:42:55;;;;;;;6.07;3.85;;;;;;;19.14;52.52;97391.09;10374206;28;20056;-58
2022/05/21 19:47:54;;;;;;;7.28;3.88;;;;;;;19.40;52.32;97439.13;10338200;28;20029;-58
2022/05/21 19:52:53;;;;;;;9.07;4.63;;;;;;;19.28;53.61;97437.03;10332749;28;20033;-58
2022/05/21 19:57:52;;;;;;;10.43;4.63;;;;;;;19.23;53.63;97442.47;10333364;28;20064;-58
2022/05/21 20:02:51;;;;;;;8.50;4.97;;;;;;;19.17;54.57;97447.97;10333101;28;20053;-58
2022/05/21 20:07:50;;;;;;;9.05;4.13;;;;;;;19.13;54.46;97447.22;10333023;28;20040;-58
2022/05/21 20:12:49;;;;;;;12.75;6.90;;;;;;;18.91;56.91;97441.97;10332516;28;20755;-58
2022/05/21 20:17:48;;;;;;;14.27;7.72;;;;;;;18.72;58.89;97428.69;10330532;28;20069;-58
2022/05/21 20:22:48;;;;;;;14.63;7.15;;;;;;;18.70;59.32;97445.44;10332372;28;20057;-58
2022/05/21 20:27:47;;;;;;;11.90;5.82;;;;;;;18.66;60.09;97436.78;10331823;28;20061;-58
2022/05/21 20:32:46;;;;;;;8.68;5.53;;;;;;;18.64;59.76;97443.88;10332673;28;20080;-58
2022/05/21 20:37:45;;;;;;;9.88;5.55;;;;;;;18.66;59.89;97443.81;10367819;28;20031;-58
2022/05/21 20:42:44;;;;;;;8.90;5.43;;;;;;;18.67;59.96;97432.41;10372424;28;20075;-58
2022/05/21 20:53:02;;;;;;;11.38;4.97;;;;;;;18.66;60.38;97446.44;10330699;28;20065;-58
2022/05/21 20:58:01;;;;;;;12.23;6.03;;;;;;;18.70;60.53;97432.31;10331475;28;20527;-58
2022/05/21 21:03:00;;;;;;;11.57;6.28;;;;;;;18.73;60.98;97435.66;10331829;28;20064;-58
2022/05/21 21:08:00;;;;;;;11.07;5.35;;;;;;;18.79;61.08;97431.94;10331706;28;20068;-58
2022/05/21 21:13:02;;;;;;;12.80;5.60;;;;;;;18.67;62.19;97437.66;10330216;28;20083;-58
2022/05/21 21:18:01;;;;;;;10.23;5.57;;;;;;;18.74;61.87;97434.75;10329882;28;20064;-58
2022/05/21 21:23:00;;;;;;;9.45;5.80;;;;;;;18.80;62.00;97429.25;10331172;28;20092;-59
2022/05/21 21:27:59;;;;;;;13.52;6.15;;;;;;;18.78;61.92;97419.72;10331283;28;20061;-58
2022/05/21 21:32:58;;;;;;;9.40;5.65;;;;;;;18.82;62.55;97414.28;10334255;28;20045;-58
2022/05/21 21:37:57;;;;;;;13.57;6.57;;;;;;;18.78;62.65;97414.44;10372747;28;20037;-58
2022/05/21 21:42:56;;;;;;;13.27;7.95;;;;;;;18.71;63.08;97420.88;10370635;28;20048;-58
2022/05/21 21:47:58;;;;;;;12.40;6.55;;;;;;;18.72;62.83;97404.19;10333518;28;20021;-58
2022/05/21 21:52:57;;;;;;;11.40;6.13;;;;;;;18.69;63.81;97417.44;10333735;28;20061;-58
2022/05/21 22:01:23;;;;;;;13.82;5.93;;;;;;;18.38;63.87;97380.03;10333721;28;20128;-58
2022/05/21 22:03:14;;;;;;;10.07;5.07;;;;;;;18.45;64.40;97411.31;10334855;28;20063;-58
2022/05/21 22:08:13;;;;;;;8.73;5.45;;;;;;;18.43;63.86;97408.75;10341371;28;20104;-58
2022/05/21 22:13:12;;;;;;;8.95;5.70;;;;;;;18.47;63.49;97393.75;10340161;28;20124;-58
2022/05/21 22:18:12;;;;;;;7.72;5.32;;;;;;;18.44;64.29;97399.97;10339856;28;20196;-58
2022/05/21 22:23:11;;;;;;;9.02;5.57;;;;;;;18.46;64.28;97395.50;10340926;28;20102;-57
2022/05/21 22:28:10;;;;;;;10.82;5.22;;;;;;;18.38;64.16;97389.69;10339693;28;20400;-58
2022/05/21 22:33:09;;;;;;;10.07;5.65;;;;;;;18.34;64.58;97388.97;10336617;28;20045;-60
2022/05/21 22:38:08;;;;;;;8.93;5.22;;;;;;;18.28;64.53;97380.44;10377287;28;20024;-58
2022/05/21 22:43:07;;;;;;;9.40;5.93;;;;;;;18.27;64.31;97379.59;10370339;28;20833;-58
2022/05/21 22:48:06;;;;;;;8.23;5.95;;;;;;;18.17;64.69;97371.22;10335971;28;20068;-58
2022/05/21 22:53:07;;;;;;;9.63;5.50;;;;;;;18.17;64.89;97371.22;10336465;28;20073;-58
2022/05/21 22:58:06;;;;;;;9.80;5.50;;;;;;;17.98;65.95;97375.41;10336824;28;20076;-58
2022/05/21 23:03:05;;;;;;;11.30;5.90;;;;;;;17.94;66.02;97358.94;10335626;28;20088;-57
2022/05/21 23:08:04;;;;;;;10.52;6.75;;;;;;;17.82;67.21;97371.66;10336525;28;20065;-58
2022/05/21 23:13:03;;;;;;;13.13;6.20;;;;;;;17.77;66.81;97356.06;10332845;28;20088;-58
2022/05/21 23:18:17;;;;;;;8.70;5.50;;;;;;;17.87;66.48;97346.09;10333597;28;20421;-58
2022/05/21 23:23:21;;;;;;;10.45;5.82;;;;;;;17.83;66.93;97352.38;10335541;28;20077;-58
2022/05/21 23:28:22;;;;;;;10.90;5.80;;;;;;;17.90;67.41;97346.00;10334773;28;20064;-58
2022/05/21 23:33:25;;;;;;;14.98;6.32;;;;;;;17.90;67.62;97348.63;10335339;28;20084;-58
2022/05/21 23:38:24;;;;;;;11.23;5.88;;;;;;;17.86;67.91;97344.38;10375887;28;20065;-58
2022/05/21 23:43:23;;;;;;;11.80;6.90;;;;;;;17.86;68.34;97334.72;10364279;28;20084;-58
2022/05/21 23:48:22;;;;;;;8.88;5.15;;;;;;;17.70;69.06;97342.28;10334138;28;20055;-58
2022/05/21 23:53:21;;;;;;;;;;;;;;;17.80;68.41;97341.97;10334889;28;20025;-58
2022/05/21 23:58:20;;;;;;;8.60;5.17;;;;;;;17.81;68.69;97334.06;10333906;28;19956;-58
